createdAt,value
2022-08-08T00:01:10.606Z,1.20
2022-08-08T00:03:53.209Z,1.30
2022-08-08T00:06:45.830Z,1.45
2022-08-08T00:09:23.217Z,1.40
2022-08-08T00:12:08.026Z,1.48
2022-08-08T00:15:00.319Z,1.50
2022-08-08T00:17:58.614Z,1.25
2022-08-08T00:20:39.972Z,1.35
2022-08-08T00:23:17.147Z,1.30
2022-08-08T00:25:51.715Z,1.63
2022-08-08T00:28:35.457Z,1.30
2022-08-08T00:32:21.371Z,1.25
2022-08-08T00:34:57.613Z,1.90
2022-08-08T00:37:47.743Z,1.40
2022-08-08T00:41:08.927Z,1.33
2022-08-08T00:44:12.587Z,1.10
2022-08-08T00:47:14.111Z,1.30
2022-08-08T00:50:29.206Z,1.48
2022-08-08T00:53:15.549Z,1.13
2022-08-08T00:56:29.985Z,1.42
2022-08-08T00:59:46.065Z,1.25
2022-08-08T01:03:59.895Z,1.10
2022-08-08T01:06:27.936Z,1.42
2022-08-08T01:09:36.529Z,1.40
2022-08-08T01:12:43.384Z,1.10
2022-08-08T01:15:54.257Z,1.15
2022-08-08T01:18:54.085Z,1.30
2022-08-08T01:22:10.261Z,1.02
2022-08-08T01:25:01.101Z,1.30
2022-08-08T01:28:11.557Z,1.10
2022-08-08T01:32:13.109Z,1.10
2022-08-08T01:34:58.344Z,1.08
2022-08-08T01:38:11.458Z,1.45
2022-08-08T01:41:00.358Z,1.90
2022-08-08T01:43:45.498Z,1.30
2022-08-08T01:46:52.632Z,1.63
2022-08-08T01:49:47.530Z,1.40
2022-08-08T01:53:06.544Z,1.13
2022-08-08T01:56:27.381Z,1.40
2022-08-08T01:58:47.103Z,1.30
2022-08-08T02:01:59.667Z,1.30
2022-08-08T02:04:30.025Z,1.00
2022-08-08T02:07:05.074Z,1.20
2022-08-08T02:10:03.966Z,1.58
2022-08-08T02:12:51.514Z,1.85
2022-08-08T02:15:34.765Z,1.45
2022-08-08T02:18:14.365Z,1.02
2022-08-08T02:21:08.254Z,1.25
2022-08-08T02:23:45.357Z,1.27
2022-08-08T02:26:22.902Z,1.58
2022-08-08T02:29:14.799Z,1.13
2022-08-08T02:32:08.610Z,1.40
2022-08-08T02:35:10.989Z,1.40
2022-08-08T02:38:25.631Z,1.38
2022-08-08T02:41:59.493Z,1.33
2022-08-08T02:48:00.880Z,1.30
2022-08-08T02:51:12.424Z,1.30
2022-08-08T02:54:23.115Z,1.50
2022-08-08T02:57:40.467Z,1.40
2022-08-08T03:00:50.700Z,1.40
2022-08-08T03:05:03.757Z,1.30
2022-08-08T03:07:41.411Z,1.05
2022-08-08T03:11:13.810Z,1.38
2022-08-08T03:16:00.295Z,1.17
2022-08-08T03:17:25.761Z,0.90
2022-08-08T03:20:10.459Z,1.40
2022-08-08T03:22:56.007Z,1.38
2022-08-08T03:25:35.715Z,1.55
2022-08-08T03:28:09.485Z,1.38
2022-08-08T03:30:40.042Z,1.80
2022-08-08T03:33:56.154Z,1.40
2022-08-08T03:36:16.064Z,1.25
2022-08-08T03:38:58.299Z,1.45
2022-08-08T03:42:26.773Z,1.70
2022-08-08T03:44:35.656Z,1.33
2022-08-08T03:47:19.531Z,1.20
2022-08-08T03:50:00.360Z,1.48
2022-08-08T03:52:37.328Z,0.98
2022-08-08T03:55:55.761Z,1.20
2022-08-08T03:58:32.449Z,1.10
2022-08-08T04:01:23.545Z,1.40
2022-08-08T04:03:58.572Z,1.25
2022-08-08T04:06:34.184Z,0.93
2022-08-08T04:09:11.460Z,1.25
2022-08-08T04:11:58.602Z,1.33
2022-08-08T04:14:44.957Z,1.15
2022-08-08T04:17:45.863Z,1.33
2022-08-08T04:20:05.611Z,1.30
2022-08-08T04:22:38.468Z,1.38
2022-08-08T04:25:13.165Z,1.38
2022-08-08T04:28:02.242Z,1.35
2022-08-08T04:30:44.476Z,1.48
2022-08-08T04:33:15.987Z,1.77
2022-08-08T04:35:50.868Z,1.92
2022-08-08T04:38:22.271Z,1.90
2022-08-08T04:40:55.072Z,1.38
2022-08-08T04:43:32.502Z,1.30
2022-08-08T04:46:20.190Z,1.20
2022-08-08T04:48:52.379Z,1.60
2022-08-08T04:51:28.160Z,1.55
2022-08-08T04:54:39.719Z,1.63
2022-08-08T04:56:59.976Z,1.38
2022-08-08T04:59:30.805Z,1.30
2022-08-08T05:02:00.973Z,1.60
2022-08-08T05:04:30.839Z,1.40
2022-08-08T05:07:00.321Z,1.25
2022-08-08T05:09:29.156Z,1.02
2022-08-08T05:11:58.196Z,1.20
2022-08-08T05:14:34.832Z,1.10
2022-08-08T05:17:09.022Z,1.00
2022-08-08T05:20:11.366Z,1.27
2022-08-08T05:22:36.363Z,1.17
2022-08-08T05:25:05.636Z,0.90
2022-08-08T05:27:41.757Z,1.20
2022-08-08T05:30:17.243Z,0.98
2022-08-08T05:32:59.427Z,1.20
2022-08-08T05:35:35.485Z,1.10
2022-08-08T05:38:32.069Z,1.52
2022-08-08T05:41:09.231Z,1.42
2022-08-08T05:44:03.946Z,1.40
2022-08-08T05:46:34.746Z,1.13
2022-08-08T05:49:11.108Z,1.58
2022-08-08T05:51:49.029Z,1.40
2022-08-08T05:54:27.654Z,1.65
2022-08-08T05:57:16.223Z,2.35
2022-08-08T06:00:25.211Z,1.70
2022-08-08T06:03:13.179Z,1.58
2022-08-08T06:05:56.520Z,1.38
2022-08-08T06:08:34.674Z,1.38
2022-08-08T06:11:08.212Z,1.40
2022-08-08T06:13:47.763Z,1.70
2022-08-08T06:16:27.474Z,1.30
2022-08-08T06:19:24.059Z,1.35
2022-08-08T06:21:57.106Z,1.33
2022-08-08T06:24:53.479Z,1.33
2022-08-08T06:27:33.251Z,1.38
2022-08-08T06:30:07.392Z,1.50
2022-08-08T06:32:47.612Z,1.70
2022-08-08T06:36:06.466Z,1.65
2022-08-08T06:38:14.847Z,1.50
2022-08-08T06:40:52.224Z,1.27
2022-08-08T06:43:33.703Z,2.25
2022-08-08T06:46:13.974Z,1.38
2022-08-08T06:48:48.030Z,1.60
2022-08-08T06:51:20.337Z,1.35
2022-08-08T06:53:55.966Z,1.80
2022-08-08T06:56:34.738Z,1.60
2022-08-08T06:59:09.724Z,1.65
2022-08-08T07:02:17.767Z,1.27
2022-08-08T07:04:47.957Z,1.35
2022-08-08T07:07:39.107Z,1.42
2022-08-08T07:10:13.096Z,1.20
2022-08-08T07:12:47.758Z,2.17
2022-08-08T07:16:03.878Z,1.13
2022-08-08T07:18:35.511Z,1.23
2022-08-08T07:21:18.943Z,1.17
2022-08-08T07:24:03.258Z,1.25
2022-08-08T07:26:43.084Z,1.50
2022-08-08T07:30:02.561Z,1.27
2022-08-08T07:32:17.165Z,1.30
2022-08-08T07:35:01.390Z,1.15
2022-08-08T07:37:55.710Z,1.08
2022-08-08T07:40:35.647Z,1.08
2022-08-08T07:43:12.556Z,1.00
2022-08-08T07:46:05.106Z,1.25
2022-08-08T07:48:38.857Z,1.20
2022-08-08T07:51:23.369Z,1.23
2022-08-08T07:54:05.666Z,1.20
2022-08-08T07:56:50.320Z,0.88
2022-08-08T07:59:23.672Z,1.60
2022-08-08T08:02:37.036Z,1.60
2022-08-08T08:04:52.297Z,1.15
2022-08-08T08:07:31.861Z,1.00
2022-08-08T08:10:05.313Z,1.10
2022-08-08T08:12:43.270Z,1.00
2022-08-08T08:15:21.537Z,1.00
2022-08-08T08:17:59.019Z,0.80
2022-08-08T08:20:31.058Z,0.70
2022-08-08T08:23:03.851Z,0.90
2022-08-08T08:25:43.556Z,0.93
2022-08-08T08:28:23.981Z,1.20
2022-08-08T08:30:58.645Z,0.93
2022-08-08T08:33:28.906Z,1.15
2022-08-08T08:36:19.339Z,1.20
2022-08-08T08:38:52.939Z,1.25
2022-08-08T08:41:31.252Z,0.90
2022-08-08T08:44:13.283Z,0.82
2022-08-08T08:46:47.272Z,0.77
2022-08-08T08:49:19.943Z,0.80
2022-08-08T08:51:54.101Z,0.68
2022-08-08T08:54:26.567Z,0.85
2022-08-08T08:57:03.963Z,0.77
2022-08-08T09:00:01.906Z,0.85
2022-08-08T09:02:41.060Z,0.60
2022-08-08T09:05:28.783Z,0.63
2022-08-08T09:08:12.718Z,0.90
2022-08-08T09:10:48.309Z,0.80
2022-08-08T09:13:25.281Z,0.65
2022-08-08T09:16:03.793Z,0.75
2022-08-08T09:18:36.487Z,0.70
2022-08-08T09:22:00.315Z,0.95
2022-08-08T09:23:56.858Z,0.80
2022-08-08T09:26:40.885Z,0.90
2022-08-08T09:29:25.401Z,1.00
2022-08-08T09:32:05.972Z,0.82
2022-08-08T09:34:51.682Z,0.90
2022-08-08T09:37:58.267Z,0.60
2022-08-08T09:40:35.874Z,0.70
2022-08-08T09:43:41.195Z,0.70
2022-08-08T09:46:25.843Z,0.93
2022-08-08T09:49:04.337Z,0.80
2022-08-08T09:54:42.789Z,0.85
2022-08-08T09:57:17.145Z,1.33
2022-08-08T10:00:21.030Z,0.88
2022-08-08T10:02:45.087Z,0.90
2022-08-08T10:05:22.845Z,0.68
2022-08-08T10:08:00.361Z,0.80
2022-08-08T10:10:32.597Z,0.77
2022-08-08T10:13:14.177Z,0.85
2022-08-08T10:16:00.989Z,0.90
2022-08-08T10:18:33.729Z,0.98
2022-08-08T10:21:22.940Z,0.65
2022-08-08T10:26:57.471Z,0.80
2022-08-08T10:29:44.122Z,0.70
2022-08-08T10:32:37.743Z,0.90
2022-08-08T10:36:09.584Z,0.65
2022-08-08T10:38:08.243Z,0.80
2022-08-08T10:40:39.795Z,0.55
2022-08-08T10:43:10.596Z,1.00
2022-08-08T10:45:57.236Z,0.50
2022-08-08T10:48:56.038Z,0.70
2022-08-08T10:51:26.264Z,0.93
2022-08-08T10:54:01.882Z,1.00
2022-08-08T10:56:35.627Z,0.70
2022-08-08T10:59:09.718Z,0.95
2022-08-08T11:01:40.285Z,0.88
2022-08-08T11:04:12.020Z,0.73
2022-08-08T11:09:21.243Z,0.70
2022-08-08T11:12:06.526Z,0.50
2022-08-08T11:14:54.533Z,0.88
2022-08-08T11:17:59.907Z,0.70
2022-08-08T11:20:18.082Z,0.65
2022-08-08T11:25:52.662Z,0.65
2022-08-08T11:28:29.416Z,1.30
2022-08-08T11:31:03.941Z,0.50
2022-08-08T11:33:53.386Z,0.70
2022-08-08T11:36:29.456Z,0.90
2022-08-08T11:38:59.984Z,0.80
2022-08-08T11:41:35.460Z,0.70
2022-08-08T11:44:08.477Z,1.33
2022-08-08T11:46:38.757Z,0.77
2022-08-08T11:49:11.603Z,0.55
2022-08-08T11:51:49.816Z,1.83
2022-08-08T11:54:46.213Z,1.00
2022-08-08T11:57:27.167Z,0.70
2022-08-08T12:00:02.547Z,0.52
2022-08-08T12:02:54.602Z,0.52
2022-08-08T12:05:34.140Z,0.55
2022-08-08T12:08:04.283Z,0.57
2022-08-08T12:10:34.498Z,0.60
2022-08-08T12:13:09.688Z,0.60
2022-08-08T12:15:50.980Z,1.10
2022-08-08T12:18:24.730Z,0.70
2022-08-08T12:20:58.949Z,0.52
2022-08-08T12:23:42.657Z,0.40
2022-08-08T12:26:27.779Z,0.60
2022-08-08T12:29:25.812Z,0.93
2022-08-08T12:32:13.378Z,0.70
2022-08-08T12:34:48.712Z,0.70
2022-08-08T12:37:22.049Z,0.50
2022-08-08T12:40:02.005Z,0.40
2022-08-08T12:42:33.694Z,0.68
2022-08-08T12:45:53.731Z,0.60
2022-08-08T12:48:09.782Z,0.50
2022-08-08T12:50:49.496Z,1.10
2022-08-08T12:56:17.948Z,0.50
2022-08-08T12:58:50.941Z,0.38
2022-08-08T13:01:24.225Z,0.60
2022-08-08T13:04:19.287Z,0.75
2022-08-08T13:06:55.148Z,0.52
2022-08-08T13:09:43.336Z,0.68
2022-08-08T13:12:30.177Z,0.65
2022-08-08T13:15:02.401Z,0.40
2022-08-08T13:18:08.334Z,0.30
2022-08-08T13:23:37.135Z,0.60
2022-08-08T13:25:50.987Z,0.60
2022-08-08T13:28:32.293Z,0.60
2022-08-08T13:31:03.876Z,0.75
2022-08-08T13:33:42.239Z,0.55
2022-08-08T13:36:12.533Z,0.50
2022-08-08T13:38:42.634Z,0.57
2022-08-08T13:41:15.918Z,0.47
2022-08-08T13:43:49.990Z,0.63
2022-08-08T13:46:26.633Z,0.50
2022-08-08T13:50:33.481Z,0.50
2022-08-08T13:52:01.271Z,0.60
2022-08-08T13:54:32.697Z,0.40
2022-08-08T13:57:04.881Z,0.55
2022-08-08T13:59:48.275Z,0.43
2022-08-08T14:02:21.210Z,0.60
2022-08-08T14:05:00.334Z,0.70
2022-08-08T14:07:42.243Z,0.70
2022-08-08T14:10:17.171Z,0.52
2022-08-08T14:12:47.970Z,0.50
2022-08-08T14:15:31.201Z,0.45
2022-08-08T14:18:35.510Z,0.50
2022-08-08T14:21:02.528Z,0.50
2022-08-08T14:24:07.480Z,0.35
2022-08-08T14:26:33.122Z,0.68
2022-08-08T14:29:06.133Z,0.70
2022-08-08T14:32:09.063Z,0.40
2022-08-08T14:34:38.899Z,0.60
2022-08-08T14:37:09.717Z,0.52
2022-08-08T14:39:48.259Z,0.70
2022-08-08T14:42:26.740Z,0.30
2022-08-08T14:44:58.325Z,0.50
2022-08-08T14:47:30.318Z,0.50
2022-08-08T14:50:15.187Z,0.50
2022-08-08T14:52:58.392Z,0.50
2022-08-08T14:55:41.485Z,0.40
2022-08-08T14:58:16.582Z,0.50
2022-08-08T15:00:50.265Z,0.30
2022-08-08T15:03:19.058Z,0.40
2022-08-08T15:05:54.775Z,0.75
2022-08-08T15:08:34.313Z,0.70
2022-08-08T15:11:10.242Z,0.63
2022-08-08T15:14:01.718Z,0.80
2022-08-08T15:16:34.442Z,0.57
2022-08-08T15:19:05.514Z,0.70
2022-08-08T15:21:37.985Z,0.50
2022-08-08T15:24:16.213Z,1.00
2022-08-08T15:26:52.471Z,1.05
2022-08-08T15:29:22.711Z,0.35
2022-08-08T15:34:42.120Z,0.77
2022-08-08T15:37:10.840Z,0.50
2022-08-08T15:39:43.002Z,0.57
2022-08-08T15:42:18.050Z,0.40
2022-08-08T15:45:00.691Z,0.47
2022-08-08T15:47:31.418Z,0.80
2022-08-08T15:50:01.681Z,0.43
2022-08-08T15:52:33.037Z,0.55
2022-08-08T15:55:03.500Z,0.60
2022-08-08T15:57:35.726Z,0.68
2022-08-08T16:00:25.995Z,0.75
2022-08-08T16:02:59.010Z,0.77
2022-08-08T16:05:35.413Z,0.40
2022-08-08T16:08:08.502Z,0.70
2022-08-08T16:13:21.465Z,0.47
2022-08-08T16:13:42.010Z,0.65
2022-08-08T16:16:17.504Z,0.70
2022-08-08T16:18:56.573Z,0.60
2022-08-08T16:21:32.059Z,0.68
2022-08-08T16:24:02.661Z,0.55
2022-08-08T16:26:36.096Z,1.40
2022-08-08T16:29:07.687Z,1.40
2022-08-08T16:31:40.474Z,1.73
2022-08-08T16:34:09.420Z,1.60
2022-08-08T16:36:38.766Z,1.13
2022-08-08T16:39:28.011Z,0.95
2022-08-08T16:42:01.818Z,1.10
2022-08-08T16:44:33.624Z,0.98
2022-08-08T16:47:40.326Z,0.70
2022-08-08T16:50:14.011Z,0.80
2022-08-08T16:55:24.298Z,0.52
2022-08-08T16:55:55.368Z,0.60
2022-08-08T16:58:26.614Z,0.73
2022-08-08T17:00:57.859Z,0.73
2022-08-08T17:03:59.327Z,0.55
2022-08-08T17:06:36.982Z,0.88
2022-08-08T17:09:05.697Z,0.43
2022-08-08T17:11:54.535Z,0.57
2022-08-08T17:14:34.001Z,0.63
2022-08-08T17:17:04.447Z,0.77
2022-08-08T17:19:41.119Z,0.65
2022-08-08T17:22:10.999Z,0.68
2022-08-08T17:24:41.372Z,0.80
2022-08-08T17:27:10.572Z,0.47
2022-08-08T17:29:43.348Z,0.60
2022-08-08T17:32:12.660Z,0.65
2022-08-08T17:35:51.971Z,0.55
2022-08-08T17:37:32.827Z,0.47
2022-08-08T17:40:05.900Z,0.90
2022-08-08T17:42:46.979Z,0.90
2022-08-08T17:45:23.311Z,0.90
2022-08-08T17:47:56.262Z,1.08
2022-08-08T17:50:26.938Z,0.55
2022-08-08T17:52:56.471Z,0.55
2022-08-08T17:56:06.148Z,0.50
2022-08-08T17:58:18.265Z,0.65
2022-08-08T18:00:56.399Z,1.00
2022-08-08T18:03:26.862Z,0.70
2022-08-08T18:05:55.809Z,0.68
2022-08-08T18:08:38.704Z,0.85
2022-08-08T18:11:14.914Z,0.70
2022-08-08T18:13:47.124Z,0.88
2022-08-08T18:16:23.239Z,0.50
2022-08-08T18:18:56.239Z,0.73
2022-08-08T18:22:00.334Z,1.38
2022-08-08T18:24:19.414Z,0.80
2022-08-08T18:26:56.834Z,0.63
2022-08-08T18:29:29.813Z,0.70
2022-08-08T18:32:03.694Z,0.90
2022-08-08T18:34:37.767Z,0.93
2022-08-08T18:37:08.318Z,1.10
2022-08-08T18:39:41.370Z,1.40
2022-08-08T18:42:16.437Z,1.30
2022-08-08T18:44:53.062Z,1.40
2022-08-08T18:47:28.537Z,1.33
2022-08-08T18:50:03.031Z,1.20
2022-08-08T18:52:34.762Z,1.35
2022-08-08T18:55:09.708Z,1.30
2022-08-08T18:57:44.545Z,0.93
2022-08-08T19:00:19.627Z,1.40
2022-08-08T19:02:57.083Z,1.20
2022-08-08T19:05:30.163Z,1.30
2022-08-08T19:08:01.053Z,1.15
2022-08-08T19:10:31.567Z,1.05
2022-08-08T19:13:00.347Z,0.85
2022-08-08T19:15:34.218Z,0.93
2022-08-08T19:18:32.283Z,0.98
2022-08-08T19:20:56.827Z,0.80
2022-08-08T19:23:26.091Z,0.88
2022-08-08T19:26:26.975Z,0.90
2022-08-08T19:28:45.412Z,1.25
2022-08-08T19:31:17.031Z,1.20
2022-08-08T19:36:37.403Z,1.08
2022-08-08T19:39:09.438Z,1.17
2022-08-08T19:41:38.752Z,1.48
2022-08-08T19:44:12.897Z,1.15
2022-08-08T19:46:56.696Z,1.05
2022-08-08T19:49:26.780Z,0.90
2022-08-08T19:51:55.379Z,1.10
2022-08-08T19:54:24.552Z,1.27
2022-08-08T19:56:53.174Z,1.38
2022-08-08T19:59:22.821Z,1.13
2022-08-08T20:02:02.615Z,1.08
2022-08-08T20:04:34.228Z,1.25
2022-08-08T20:08:30.079Z,1.40
2022-08-08T20:09:56.293Z,1.15
2022-08-08T20:12:31.983Z,1.13
2022-08-08T20:15:14.881Z,1.40
2022-08-08T20:17:48.514Z,1.17
2022-08-08T20:20:22.236Z,1.27
2022-08-08T20:22:53.806Z,1.48
2022-08-08T20:25:29.786Z,1.52
2022-08-08T20:28:06.488Z,1.20
2022-08-08T20:30:55.685Z,1.10
2022-08-08T20:35:58.029Z,1.00
2022-08-08T20:38:32.545Z,1.27
2022-08-08T20:41:05.627Z,1.25
2022-08-08T20:43:49.312Z,1.30
2022-08-08T20:46:25.782Z,1.17
2022-08-08T20:48:58.503Z,1.30
2022-08-08T20:51:32.647Z,1.48
2022-08-08T20:54:14.037Z,1.17
2022-08-08T20:57:04.583Z,1.30
2022-08-08T20:59:41.456Z,0.95
2022-08-08T21:02:12.438Z,1.20
2022-08-08T21:07:46.860Z,1.30
2022-08-08T21:10:12.623Z,1.45
2022-08-08T21:12:44.680Z,1.15
2022-08-08T21:15:16.449Z,1.15
2022-08-08T21:18:07.051Z,1.13
2022-08-08T21:20:36.015Z,1.23
2022-08-08T21:23:09.972Z,1.20
2022-08-08T21:25:42.454Z,1.35
2022-08-08T21:28:16.177Z,1.13
2022-08-08T21:30:49.641Z,1.00
2022-08-08T21:33:21.392Z,1.20
2022-08-08T21:36:17.423Z,1.20
2022-08-08T21:38:40.456Z,0.80
2022-08-08T21:41:09.266Z,1.30
2022-08-08T21:43:58.353Z,0.90
2022-08-08T21:48:07.613Z,0.70
2022-08-08T21:49:19.546Z,1.25
2022-08-08T21:54:33.711Z,1.30
2022-08-08T21:55:02.621Z,1.17
2022-08-08T21:57:41.966Z,1.25
2022-08-08T22:00:14.166Z,1.02
2022-08-08T22:02:48.715Z,1.00
2022-08-08T22:05:18.297Z,1.20
2022-08-08T22:07:49.016Z,0.95
2022-08-08T22:10:32.152Z,1.02
2022-08-08T22:13:17.168Z,1.00
2022-08-08T22:15:58.383Z,1.05
2022-08-08T22:18:31.446Z,1.85
2022-08-08T22:21:14.172Z,1.13
2022-08-08T22:23:50.704Z,1.17
2022-08-08T22:26:29.928Z,1.02
2022-08-08T22:29:13.426Z,1.50
2022-08-08T22:31:58.198Z,1.25
2022-08-08T22:34:32.061Z,1.05
2022-08-08T22:37:00.947Z,1.23
2022-08-08T22:39:45.507Z,1.42
2022-08-08T22:42:24.166Z,1.20
2022-08-08T22:44:56.965Z,1.25
2022-08-08T22:47:38.386Z,1.23
2022-08-08T22:50:26.411Z,1.23
2022-08-08T22:54:19.569Z,1.08
2022-08-08T22:55:59.787Z,1.00
2022-08-08T22:58:34.714Z,1.40
2022-08-08T23:01:26.702Z,0.90
2022-08-08T23:03:55.603Z,1.40
2022-08-08T23:06:25.485Z,1.35
2022-08-08T23:08:58.351Z,1.00
2022-08-08T23:11:30.870Z,1.48
2022-08-08T23:14:21.092Z,0.98
2022-08-08T23:16:59.117Z,1.13
2022-08-08T23:19:31.093Z,1.30
2022-08-08T23:22:04.202Z,1.00
2022-08-08T23:24:36.170Z,1.05
2022-08-08T23:27:05.906Z,1.13
2022-08-08T23:29:35.784Z,1.17
2022-08-08T23:32:06.719Z,1.27
2022-08-08T23:34:39.758Z,1.20
2022-08-08T23:37:24.643Z,1.25
2022-08-08T23:39:55.322Z,1.30
2022-08-08T23:42:29.416Z,1.70
2022-08-08T23:45:00.220Z,1.30
2022-08-08T23:49:00.079Z,1.42
2022-08-08T23:50:30.498Z,1.48
2022-08-08T23:53:03.509Z,1.13
2022-08-08T23:55:38.282Z,1.38
2022-08-08T23:58:31.936Z,1.05
